Time;durP1;ratioP1;P1;durP2;ratioP2;P2;SDS_P1;SDS_P2;PMS_P1;PMS_P2;Temp;Humidity;BMP_temperature;BMP_pressure;BME280_temperature;BME280_humidity;BME280_pressure;Samples;Min_cycle;Max_cycle;Signal;HPM_P1;HPM_P2
2022/02/25 00:00:37;;;;;;;36.20;21.10;;;;;;;0.16;66.45;94566.71;1474764;95;21654;-53
2022/02/25 00:03:06;;;;;;;37.90;20.60;;;;;;;0.13;66.37;94562.08;1530552;91;21146;-56
2022/02/25 00:05:33;;;;;;;29.25;20.20;;;;;;;0.06;66.46;94558.00;1544607;91;21138;-57
2022/02/25 00:08:01;;;;;;;34.98;19.65;;;;;;;0.02;66.51;94561.28;1520466;93;21144;-54
2022/02/25 00:10:31;;;;;;;28.80;18.15;;;;;;;0.06;66.44;94565.35;1525720;93;21079;-54
2022/02/25 00:12:59;;;;;;;38.38;22.50;;;;;;;0.08;66.61;94561.09;1516972;93;21021;-53
2022/02/25 00:15:28;;;;;;;38.10;19.73;;;;;;;0.10;66.46;94560.72;1532095;92;21151;-54
2022/02/25 00:17:56;;;;;;;38.58;20.37;;;;;;;0.09;66.38;94558.61;1532369;91;21500;-54
2022/02/25 00:20:25;;;;;;;62.13;30.17;;;;;;;0.12;66.20;94554.34;1529718;92;21115;-54
2022/02/25 00:22:53;;;;;;;44.08;23.18;;;;;;;0.09;66.04;94546.44;1514948;93;21075;-53
2022/02/25 00:25:21;;;;;;;53.50;29.30;;;;;;;0.05;66.03;94542.94;1534523;92;20987;-53
2022/02/25 00:27:50;;;;;;;54.55;29.80;;;;;;;-0.01;66.05;94543.13;1533887;92;21553;-59
2022/02/25 00:30:19;;;;;;;78.92;38.42;;;;;;;-0.03;66.32;94539.85;1512331;93;21021;-56
2022/02/25 00:32:47;;;;;;;72.45;32.93;;;;;;;-0.03;66.38;94534.45;1539480;92;21129;-55
2022/02/25 00:35:16;;;;;;;59.10;28.27;;;;;;;-0.02;66.30;94535.98;1539619;92;21151;-55
2022/02/25 00:37:45;;;;;;;47.58;25.68;;;;;;;0.00;66.17;94533.11;1550898;92;21472;-55
2022/02/25 00:40:13;;;;;;;49.05;26.10;;;;;;;0.03;66.08;94537.14;1549614;91;21082;-56
2022/02/25 00:42:42;;;;;;;51.88;26.68;;;;;;;0.05;65.84;94536.17;1549129;91;21042;-55
2022/02/25 00:45:10;;;;;;;35.52;22.37;;;;;;;0.01;65.77;94531.95;1548826;91;21080;-54
2022/02/25 00:47:39;;;;;;;30.77;17.80;;;;;;;-0.02;65.98;94533.28;1550600;90;21569;-56
2022/02/25 00:50:08;;;;;;;28.77;17.15;;;;;;;0.01;65.98;94536.00;1549420;91;21096;-55
2022/02/25 00:52:38;;;;;;;28.25;16.67;;;;;;;0.00;65.93;94529.80;1526451;92;21008;-55
2022/02/25 00:55:08;;;;;;;28.12;15.35;;;;;;;0.00;66.16;94528.45;1548895;90;21082;-55
2022/02/25 00:57:46;;;;;;;23.95;13.70;;;;;;;-0.02;65.87;94530.77;1554326;91;21126;-57
2022/02/25 01:00:18;;;;;;;24.63;14.03;;;;;;;-0.06;66.03;94527.86;1523253;92;21502;-55
2022/02/25 01:02:45;;;;;;;32.80;16.75;;;;;;;-0.04;66.09;94530.20;1523640;93;21858;-55
2022/02/25 01:05:12;;;;;;;49.00;20.50;;;;;;;-0.03;65.84;94526.33;1523002;92;21218;-55
2022/02/25 01:07:41;;;;;;;36.13;18.60;;;;;;;-0.07;66.07;94530.97;1519343;93;21119;-55
2022/02/25 01:10:10;;;;;;;31.17;16.75;;;;;;;-0.14;65.75;94525.54;1521236;93;21167;-56
2022/02/25 01:12:38;;;;;;;45.28;22.98;;;;;;;-0.21;65.79;94516.08;1553662;91;21093;-54
2022/02/25 01:15:06;;;;;;;56.58;25.95;;;;;;;-0.26;66.45;94511.06;1554851;91;21123;-54
2022/02/25 01:17:33;;;;;;;119.95;52.65;;;;;;;-0.23;66.51;94512.40;1553127;91;21005;-56
2022/02/25 01:20:02;;;;;;;94.32;45.38;;;;;;;-0.23;66.51;94511.64;1554612;90;21027;-56
2022/02/25 01:22:29;;;;;;;110.52;51.90;;;;;;;-0.25;66.25;94509.91;1554692;90;21168;-55
2022/02/25 01:24:58;;;;;;;111.22;53.42;;;;;;;-0.35;66.48;94512.00;1548017;91;21171;-56
2022/02/25 01:27:25;;;;;;;135.80;67.22;;;;;;;-0.38;66.55;94504.66;1509288;93;21716;-54
2022/02/25 01:29:52;;;;;;;84.03;42.95;;;;;;;-0.36;66.72;94502.34;1524778;93;21522;-54
2022/02/25 01:32:19;;;;;;;61.08;32.17;;;;;;;-0.35;66.75;94506.03;1497614;94;21145;-53
2022/02/25 01:34:46;;;;;;;39.83;23.07;;;;;;;-0.29;66.52;94507.19;1515635;93;21589;-53
2022/02/25 01:37:12;;;;;;;42.93;24.35;;;;;;;-0.30;66.31;94504.30;1523264;93;21175;-57
2022/02/25 01:39:39;;;;;;;40.45;23.83;;;;;;;-0.32;66.44;94505.83;1505938;93;21725;-54
2022/02/25 01:42:07;;;;;;;142.70;64.75;;;;;;;-0.31;66.58;94503.31;1530146;92;21336;-54
2022/02/25 01:44:40;;;;;;;107.03;48.55;;;;;;;-0.31;66.48;94501.96;1545339;91;22197;-53
2022/02/25 01:47:08;;;;;;;80.22;37.00;;;;;;;-0.35;66.63;94509.30;1531746;92;21075;-53
2022/02/25 01:49:35;;;;;;;54.10;28.55;;;;;;;-0.43;66.83;94506.40;1555497;91;21536;-54
2022/02/25 01:52:06;;;;;;;61.00;30.10;;;;;;;-0.47;66.86;94507.73;1548849;91;21151;-54
2022/02/25 01:54:33;;;;;;;53.15;29.55;;;;;;;-0.47;66.85;94498.28;1541625;92;21005;-50
2022/02/25 01:57:00;;;;;;;71.57;35.20;;;;;;;-0.48;66.75;94502.70;1548294;91;21146;-50
2022/02/25 01:59:28;;;;;;;47.73;27.67;;;;;;;-0.45;66.89;94504.66;1550617;91;21107;-49
2022/02/25 02:01:55;;;;;;;42.95;26.55;;;;;;;-0.46;66.65;94503.09;1543548;92;21055;-51
2022/02/25 02:04:23;;;;;;;49.53;27.52;;;;;;;-0.48;66.76;94504.84;1519058;92;21180;-49
2022/02/25 02:06:51;;;;;;;38.90;21.33;;;;;;;-0.45;66.69;94496.56;1520296;93;21075;-50
2022/02/25 02:09:17;;;;;;;65.92;32.13;;;;;;;-0.45;66.61;94501.37;1528826;93;21548;-48
2022/02/25 02:11:47;;;;;;;43.38;23.77;;;;;;;-0.43;66.69;94497.70;1536401;92;20979;-49
2022/02/25 02:14:17;;;;;;;48.33;24.95;;;;;;;-0.33;66.88;94502.93;1545171;91;21488;-49
2022/02/25 02:16:49;;;;;;;31.40;19.37;;;;;;;-0.21;66.41;94496.56;1544034;91;21151;-51
2022/02/25 02:19:16;;;;;;;32.90;18.02;;;;;;;-0.17;66.30;94492.53;1547968;91;21182;-49
2022/02/25 02:21:46;;;;;;;21.23;13.88;;;;;;;-0.12;66.11;94491.57;1548201;91;21027;-50
2022/02/25 02:24:15;;;;;;;16.45;12.25;;;;;;;-0.09;65.80;94487.30;1552211;92;21027;-49
2022/02/25 02:26:42;;;;;;;21.57;15.15;;;;;;;-0.04;65.99;94493.70;1535906;92;21089;-48
2022/02/25 02:29:09;;;;;;;28.55;16.00;;;;;;;0.02;65.69;94492.34;1529024;93;21185;-48
2022/02/25 02:31:36;;;;;;;22.25;15.45;;;;;;;0.03;65.54;94494.48;1523574;91;21557;-49
2022/02/25 02:34:06;;;;;;;24.57;15.30;;;;;;;-0.03;65.71;94488.48;1525168;93;21477;-49
2022/02/25 02:36:32;;;;;;;28.27;17.90;;;;;;;-0.01;65.78;94493.68;1505990;93;21058;-49
2022/02/25 02:38:59;;;;;;;32.93;17.48;;;;;;;0.00;65.61;94479.79;1472028;95;21074;-49
2022/02/25 02:41:25;;;;;;;22.52;13.20;;;;;;;-0.02;65.54;94481.33;1486479;95;21180;-50
2022/02/25 02:43:52;;;;;;;21.05;13.95;;;;;;;-0.01;65.45;94483.66;1536332;91;21007;-50
2022/02/25 02:46:19;;;;;;;31.05;17.77;;;;;;;-0.04;65.83;94485.59;1546826;91;21587;-51
2022/02/25 02:48:46;;;;;;;25.45;14.85;;;;;;;0.02;66.04;94485.58;1548779;91;21125;-54
2022/02/25 02:51:13;;;;;;;38.55;16.85;;;;;;;0.14;65.67;94484.41;1546894;91;21047;-50
2022/02/25 02:53:40;;;;;;;44.27;20.43;;;;;;;0.16;65.38;94497.75;1550403;90;21167;-50
2022/02/25 02:56:07;;;;;;;31.73;15.28;;;;;;;0.12;65.36;94490.22;1531093;91;21202;-50
2022/02/25 02:58:34;;;;;;;32.45;16.75;;;;;;;0.11;65.36;94492.74;1545407;91;21507;-50
2022/02/25 03:01:00;;;;;;;26.50;15.75;;;;;;;0.10;65.45;94498.52;1508501;93;21079;-49
2022/02/25 03:03:27;;;;;;;30.25;15.78;;;;;;;0.12;65.48;94505.09;1492505;93;21076;-50
2022/02/25 03:05:53;;;;;;;41.58;17.20;;;;;;;0.13;65.20;94503.94;1511289;93;21810;-49
2022/02/25 03:08:22;;;;;;;30.95;15.03;;;;;;;0.09;65.07;94502.38;1524038;92;21444;-48
2022/02/25 03:10:49;;;;;;;29.95;16.52;;;;;;;0.01;65.14;94502.96;1526256;93;21072;-49
2022/02/25 03:13:16;;;;;;;27.45;16.57;;;;;;;-0.06;65.21;94505.48;1523012;92;21037;-49
2022/02/25 03:15:43;;;;;;;29.72;17.07;;;;;;;-0.12;65.35;94507.78;1524525;92;21040;-50
2022/02/25 03:18:10;;;;;;;20.82;13.18;;;;;;;-0.17;65.60;94512.23;1545301;91;21110;-48
2022/02/25 03:20:37;;;;;;;20.45;13.95;;;;;;;-0.19;65.44;94505.66;1552998;91;21564;-48
2022/02/25 03:23:03;;;;;;;28.47;16.35;;;;;;;-0.24;65.67;94499.29;1532003;92;21020;-48
2022/02/25 03:25:30;;;;;;;35.65;17.67;;;;;;;-0.19;65.94;94500.25;1549038;91;21257;-50
2022/02/25 03:27:57;;;;;;;30.27;16.62;;;;;;;-0.14;65.84;94502.00;1542076;91;21103;-49
2022/02/25 03:30:23;;;;;;;26.82;15.53;;;;;;;-0.03;65.95;94496.59;1542011;91;21601;-50
2022/02/25 03:32:51;;;;;;;28.25;14.90;;;;;;;0.11;65.90;94500.85;1510137;92;21016;-49
2022/02/25 03:35:18;;;;;;;23.75;14.78;;;;;;;0.24;65.47;94501.98;1538667;92;21042;-49
2022/02/25 03:37:45;;;;;;;19.73;11.48;;;;;;;0.27;65.28;94501.80;1501816;94;21056;-49
2022/02/25 03:40:12;;;;;;;22.85;13.22;;;;;;;0.22;65.24;94502.95;1534631;92;21105;-49
2022/02/25 03:42:39;;;;;;;18.60;11.85;;;;;;;0.18;65.01;94502.19;1537925;92;21227;-49
2022/02/25 03:45:07;;;;;;;17.95;10.90;;;;;;;0.11;65.16;94502.20;1532366;92;21633;-50
2022/02/25 03:47:34;;;;;;;15.65;10.93;;;;;;;0.10;65.24;94497.95;1543662;91;21148;-48
2022/02/25 03:50:01;;;;;;;16.10;9.70;;;;;;;0.10;65.28;94499.31;1550795;91;21010;-48
2022/02/25 03:52:27;;;;;;;17.45;11.65;;;;;;;0.11;65.24;94499.50;1551291;91;21122;-50
2022/02/25 03:54:54;;;;;;;14.00;11.38;;;;;;;0.11;65.21;94490.03;1552543;91;21870;-49
2022/02/25 03:57:21;;;;;;;13.38;10.48;;;;;;;0.17;65.22;94488.48;1569624;90;21115;-48
2022/02/25 03:59:48;;;;;;;35.13;19.05;;;;;;;0.25;64.91;94490.59;1545698;91;21708;-49
2022/02/25 04:02:14;;;;;;;40.88;19.95;;;;;;;0.19;64.93;94491.56;1523604;92;21125;-50
2022/02/25 04:04:41;;;;;;;38.67;18.35;;;;;;;0.17;64.96;94494.45;1524787;92;21159;-49
2022/02/25 04:07:07;;;;;;;30.02;17.02;;;;;;;0.13;65.28;94485.58;1509552;93;21523;-51
2022/02/25 04:09:36;;;;;;;25.25;16.42;;;;;;;0.16;64.93;94495.05;1532144;92;21175;-50
2022/02/25 04:12:04;;;;;;;25.75;15.38;;;;;;;0.08;65.08;94491.37;1530202;92;21261;-49
2022/02/25 04:14:31;;;;;;;52.62;26.37;;;;;;;0.04;65.15;94494.08;1526578;92;21695;-49
2022/02/25 04:16:57;;;;;;;19.95;15.00;;;;;;;0.04;65.07;94497.37;1524906;93;21239;-50
2022/02/25 04:19:25;;;;;;;30.32;16.95;;;;;;;0.07;65.09;94501.41;1533680;92;21204;-49
2022/02/25 04:21:52;;;;;;;23.77;14.43;;;;;;;0.20;64.72;94491.75;1532999;92;21162;-50
2022/02/25 04:24:18;;;;;;;25.55;13.48;;;;;;;0.25;64.51;94493.30;1532078;90;21123;-52
2022/02/25 04:26:45;;;;;;;15.78;12.50;;;;;;;0.23;64.29;94489.63;1543163;92;21471;-55
2022/02/25 04:29:12;;;;;;;13.88;8.68;;;;;;;0.16;64.06;94490.99;1539571;92;21125;-50
2022/02/25 04:31:40;;;;;;;26.02;13.78;;;;;;;0.10;63.91;94492.55;1532788;92;21182;-52
2022/02/25 04:34:06;;;;;;;43.85;23.70;;;;;;;0.08;64.10;94486.73;1540119;93;21125;-50
2022/02/25 04:36:38;;;;;;;30.43;17.15;;;;;;;0.13;64.08;94489.06;1540199;92;21035;-49
2022/02/25 04:39:05;;;;;;;27.62;21.33;;;;;;;0.08;63.81;94492.14;1537559;93;21011;-52
2022/02/25 04:41:32;;;;;;;21.10;15.20;;;;;;;0.02;64.00;94487.53;1541671;92;21087;-51
2022/02/25 04:43:59;;;;;;;20.27;13.45;;;;;;;0.03;63.96;94488.48;1540136;93;21182;-50
2022/02/25 04:46:26;;;;;;;36.93;19.75;;;;;;;0.04;63.95;94481.15;1540353;92;21094;-49
2022/02/25 04:48:54;;;;;;;40.15;20.97;;;;;;;0.02;64.15;94481.52;1540304;93;21052;-51
2022/02/25 04:51:21;;;;;;;52.95;27.35;;;;;;;0.05;64.15;94482.09;1545462;92;21697;-51
2022/02/25 04:53:49;;;;;;;33.88;20.40;;;;;;;0.01;64.22;94482.69;1549428;91;21814;-50
2022/02/25 04:56:16;;;;;;;41.25;22.05;;;;;;;-0.04;64.24;94479.59;1553519;91;21209;-50
2022/02/25 04:58:44;;;;;;;32.08;19.25;;;;;;;-0.04;64.57;94486.94;1557885;91;21003;-51
2022/02/25 05:01:10;;;;;;;51.35;28.85;;;;;;;-0.01;64.57;94483.66;1543399;91;21072;-50
2022/02/25 05:03:38;;;;;;;68.70;37.63;;;;;;;-0.03;64.65;94477.67;1523241;92;21021;-52
2022/02/25 05:06:06;;;;;;;84.25;42.30;;;;;;;-0.02;64.95;94490.22;1516738;93;21200;-50
2022/02/25 05:08:34;;;;;;;76.40;40.03;;;;;;;0.08;64.91;94481.32;1520291;92;21537;-50
2022/02/25 05:11:01;;;;;;;52.60;30.02;;;;;;;0.20;64.75;94488.30;1513444;93;21132;-52
2022/02/25 05:13:28;;;;;;;44.60;27.42;;;;;;;0.26;64.38;94482.08;1520935;92;21148;-53
2022/02/25 05:21:26;;;;;;;40.23;24.35;;;;;;;0.33;64.34;94484.80;1557332;91;21892;-54
2022/02/25 05:23:53;;;;;;;30.50;20.20;;;;;;;0.35;64.11;94483.83;1532878;92;21101;-53
2022/02/25 05:26:19;;;;;;;32.95;20.40;;;;;;;0.35;64.21;94478.41;1573604;90;21106;-55
2022/02/25 05:28:46;;;;;;;29.72;21.05;;;;;;;0.37;63.91;94485.55;1550458;91;21089;-54
2022/02/25 05:31:14;;;;;;;32.88;20.52;;;;;;;0.33;63.86;94478.59;1546723;91;21486;-53
2022/02/25 05:33:43;;;;;;;30.70;19.35;;;;;;;0.24;63.77;94478.23;1535111;92;21206;-56
2022/02/25 05:36:09;;;;;;;30.23;19.02;;;;;;;0.14;64.15;94481.14;1530384;92;21118;-53
2022/02/25 05:38:37;;;;;;;28.20;17.23;;;;;;;0.12;64.35;94481.33;1537321;92;21277;-50
2022/02/25 05:41:03;;;;;;;24.77;17.67;;;;;;;0.15;64.28;94486.74;1545523;90;21069;-53
2022/02/25 05:43:30;;;;;;;25.65;15.70;;;;;;;0.17;64.35;94479.02;1552284;91;21105;-51
2022/02/25 05:45:57;;;;;;;26.33;16.05;;;;;;;0.16;64.48;94481.52;1561829;91;21189;-50
2022/02/25 05:48:24;;;;;;;25.60;17.07;;;;;;;0.21;64.50;94476.31;1549592;91;21180;-52
2022/02/25 05:50:51;;;;;;;32.23;16.90;;;;;;;0.30;64.57;94478.81;1533775;91;21262;-53
2022/02/25 05:53:17;;;;;;;38.55;22.30;;;;;;;0.39;64.23;94488.64;1542669;91;21532;-53
2022/02/25 05:55:45;;;;;;;75.60;35.15;;;;;;;0.36;63.87;94483.23;1553336;91;21039;-52
2022/02/25 05:58:12;;;;;;;50.10;29.70;;;;;;;0.33;64.12;94483.44;1550212;91;21992;-49
2022/02/25 06:00:38;;;;;;;69.77;38.92;;;;;;;0.42;64.23;94485.16;1547375;91;21280;-55
2022/02/25 06:03:05;;;;;;;69.20;39.42;;;;;;;0.58;64.08;94487.47;1539033;92;21500;-51
2022/02/25 06:05:32;;;;;;;57.27;35.05;;;;;;;0.60;64.10;94485.89;1546573;90;21573;-52
2022/02/25 06:08:00;;;;;;;42.53;26.62;;;;;;;0.72;64.17;94485.48;1546699;91;21094;-54
2022/02/25 06:10:27;;;;;;;46.83;28.32;;;;;;;0.83;64.11;94477.34;1551825;91;21166;-49
2022/02/25 06:12:53;;;;;;;53.52;29.92;;;;;;;0.90;64.00;94481.36;1540978;91;21008;-53
2022/02/25 06:15:20;;;;;;;53.05;31.95;;;;;;;0.95;64.19;94483.69;1551698;91;21989;-52
2022/02/25 06:17:49;;;;;;;71.75;41.92;;;;;;;1.03;64.36;94478.42;1529050;91;21630;-50
2022/02/25 06:20:19;;;;;;;91.78;49.75;;;;;;;1.17;64.64;94473.71;1527426;92;21144;-51
2022/02/25 06:22:46;;;;;;;87.42;51.60;;;;;;;1.38;64.25;94478.27;1530296;92;21169;-50
2022/02/25 06:25:14;;;;;;;136.22;72.20;;;;;;;1.51;63.98;94468.52;1528663;91;21252;-53
2022/02/25 06:27:41;;;;;;;123.38;64.30;;;;;;;1.62;63.97;94477.34;1534108;91;21111;-50
2022/02/25 06:30:09;;;;;;;106.97;55.55;;;;;;;1.77;63.57;94476.28;1549167;91;21138;-52
2022/02/25 06:32:37;;;;;;;125.60;60.75;;;;;;;1.91;63.27;94476.76;1550980;91;21087;-53
2022/02/25 06:35:05;;;;;;;100.92;52.27;;;;;;;1.96;63.38;94483.89;1548809;91;21328;-55
2022/02/25 06:37:32;;;;;;;94.35;52.65;;;;;;;2.08;63.11;94473.14;1543894;90;21150;-50
2022/02/25 06:39:59;;;;;;;84.13;47.75;;;;;;;2.15;62.70;94477.17;1539268;92;21102;-50
2022/02/25 06:42:26;;;;;;;101.20;57.85;;;;;;;2.20;62.73;94480.81;1535889;92;21189;-53
2022/02/25 06:44:52;;;;;;;97.85;56.13;;;;;;;2.19;62.86;94481.98;1531901;91;21690;-52
2022/02/25 06:47:19;;;;;;;78.02;44.80;;;;;;;2.28;63.21;94488.49;1556669;91;21939;-53
2022/02/25 06:49:46;;;;;;;71.72;45.08;;;;;;;2.55;63.04;94481.28;1546871;90;21203;-52
2022/02/25 06:52:12;;;;;;;52.27;32.98;;;;;;;2.68;62.72;94480.19;1555604;91;21140;-52
2022/02/25 06:54:40;;;;;;;51.45;30.95;;;;;;;2.73;62.45;94479.14;1547717;91;21095;-51
2022/02/25 06:57:07;;;;;;;53.20;30.62;;;;;;;2.82;61.84;94478.66;1549584;91;21170;-51
2022/02/25 06:59:34;;;;;;;52.38;30.17;;;;;;;2.96;61.54;94475.23;1546543;91;21628;-51
2022/02/25 07:02:03;;;;;;;46.90;28.05;;;;;;;3.13;61.17;94476.97;1553640;91;21145;-54
2022/02/25 07:04:30;;;;;;;45.05;26.48;;;;;;;3.38;60.77;94487.55;1530072;92;21081;-55
2022/02/25 07:06:56;;;;;;;39.00;25.30;;;;;;;3.60;59.55;94479.48;1550096;91;21120;-60
2022/02/25 07:09:23;;;;;;;22.48;15.20;;;;;;;3.80;58.46;94474.92;1552030;91;21065;-51
2022/02/25 07:11:50;;;;;;;58.48;32.95;;;;;;;3.95;57.00;94473.54;1536581;91;21183;-55
2022/02/25 07:14:17;;;;;;;47.20;29.63;;;;;;;4.00;57.29;94468.20;1528031;92;21200;-51
2022/02/25 07:16:44;;;;;;;47.08;29.27;;;;;;;4.04;58.15;94471.05;1540604;91;21064;-53
2022/02/25 07:19:11;;;;;;;56.05;32.30;;;;;;;4.10;57.79;94476.23;1540447;90;21110;-52
2022/02/25 07:21:37;;;;;;;43.25;27.20;;;;;;;4.16;57.38;94473.79;1537247;91;21576;-52
2022/02/25 07:24:05;;;;;;;46.35;27.67;;;;;;;4.34;56.63;94462.81;1540739;91;21165;-52
2022/02/25 07:26:33;;;;;;;33.73;22.10;;;;;;;4.50;56.12;94467.02;1544525;90;21100;-52
2022/02/25 07:28:59;;;;;;;44.58;27.10;;;;;;;4.71;55.78;94469.95;1542507;91;21690;-52
2022/02/25 07:31:26;;;;;;;42.15;26.12;;;;;;;4.94;55.41;94465.24;1545739;90;21042;-51
2022/02/25 07:33:53;;;;;;;49.20;28.38;;;;;;;5.05;54.30;94464.46;1518206;91;21139;-53
2022/02/25 07:36:20;;;;;;;40.03;24.65;;;;;;;5.07;53.92;94451.76;1540462;91;21196;-59
2022/02/25 07:38:47;;;;;;;38.45;24.12;;;;;;;5.17;54.18;94453.52;1534134;91;21087;-51
2022/02/25 07:41:14;;;;;;;33.48;21.62;;;;;;;5.39;53.60;94452.69;1540513;90;21069;-53
2022/02/25 07:43:40;;;;;;;19.50;12.63;;;;;;;5.57;52.33;94449.75;1512808;93;21204;-55
2022/02/25 07:46:07;;;;;;;15.30;9.23;;;;;;;5.71;50.80;94450.03;1506848;92;21089;-57
2022/02/25 07:48:34;;;;;;;14.70;9.08;;;;;;;5.86;49.82;94454.02;1502086;94;21192;-58
2022/02/25 07:51:02;;;;;;;10.82;7.45;;;;;;;5.92;48.70;94455.05;1500307;94;21082;-59
2022/02/25 07:53:32;;;;;;;14.60;8.98;;;;;;;5.91;49.05;94445.32;1506414;92;21102;-60
2022/02/25 07:55:58;;;;;;;12.70;8.70;;;;;;;5.86;49.34;94441.73;1541715;91;21113;-54
2022/02/25 07:58:28;;;;;;;16.15;10.43;;;;;;;5.86;48.82;94434.33;1529624;91;21133;-57
2022/02/25 08:00:54;;;;;;;25.17;16.00;;;;;;;5.92;48.56;94429.89;1545369;89;21190;-55
2022/02/25 08:03:21;;;;;;;15.48;11.43;;;;;;;6.04;48.53;94433.33;1543572;91;21637;-54
2022/02/25 08:05:49;;;;;;;11.03;9.00;;;;;;;6.15;48.06;94433.83;1540820;91;21548;-57
2022/02/25 08:08:16;;;;;;;17.30;12.82;;;;;;;6.22;47.57;94437.00;1544304;91;21114;-58
2022/02/25 08:10:43;;;;;;;14.73;9.00;;;;;;;6.34;47.57;94434.34;1497073;93;21129;-56
2022/02/25 08:13:10;;;;;;;13.38;10.13;;;;;;;6.52;46.78;94429.22;1524636;92;21165;-58
2022/02/25 08:15:44;;;;;;;24.10;12.82;;;;;;;6.56;47.02;94427.16;1541737;91;21629;-60
2022/02/25 08:18:15;;;;;;;18.87;10.80;;;;;;;6.56;47.56;94423.67;1511667;92;21101;-60
2022/02/25 08:20:48;;;;;;;17.90;10.30;;;;;;;6.61;46.40;94431.34;1535586;91;21525;-59
2022/02/25 08:23:15;;;;;;;15.63;9.28;;;;;;;6.62;45.69;94419.21;1542418;90;21140;-56
2022/02/25 08:25:43;;;;;;;12.60;8.55;;;;;;;6.58;45.67;94410.34;1535847;91;21317;-57
2022/02/25 08:28:10;;;;;;;14.20;8.75;;;;;;;6.56;45.83;94405.91;1530623;92;21129;-55
2022/02/25 08:30:38;;;;;;;16.57;10.80;;;;;;;6.58;46.09;94411.12;1537771;91;21129;-56
2022/02/25 08:33:05;;;;;;;22.62;11.65;;;;;;;6.64;46.36;94422.28;1537880;91;21077;-54
2022/02/25 08:35:33;;;;;;;14.38;9.23;;;;;;;6.66;46.42;94400.78;1542978;91;21035;-53
2022/02/25 08:38:03;;;;;;;14.45;8.48;;;;;;;6.71;46.48;94400.25;1493617;91;21813;-59
2022/02/25 08:40:30;;;;;;;13.48;9.33;;;;;;;6.70;46.54;94395.37;1536014;91;21211;-57
2022/02/25 08:42:57;;;;;;;15.00;10.18;;;;;;;6.68;47.04;94397.02;1539492;91;21054;-55
2022/02/25 08:45:26;;;;;;;13.30;8.98;;;;;;;6.68;46.68;94392.91;1541974;91;21166;-57
2022/02/25 08:47:55;;;;;;;13.60;8.75;;;;;;;6.67;46.63;94394.86;1544182;91;21039;-56
2022/02/25 08:50:22;;;;;;;14.68;10.88;;;;;;;6.62;47.27;94383.69;1549808;91;21785;-53
2022/02/25 08:52:51;;;;;;;15.15;9.85;;;;;;;6.65;47.64;94384.19;1546805;90;21627;-60
2022/02/25 08:55:19;;;;;;;15.10;9.08;;;;;;;6.77;47.45;94383.48;1550758;91;21580;-60
2022/02/25 08:57:51;;;;;;;14.90;8.10;;;;;;;6.80;47.84;94391.59;1537245;91;21555;-56
2022/02/25 09:00:23;;;;;;;15.15;9.90;;;;;;;6.81;47.75;94379.46;1520116;91;21592;-55
2022/02/25 09:02:52;;;;;;;12.70;9.03;;;;;;;6.82;48.18;94374.75;1539252;91;21898;-54
2022/02/25 09:05:21;;;;;;;15.85;10.48;;;;;;;6.82;47.79;94370.64;1548185;91;21125;-63
2022/02/25 09:07:52;;;;;;;15.70;9.40;;;;;;;6.86;47.94;94369.36;1537345;91;21117;-59
2022/02/25 09:10:18;;;;;;;13.35;9.90;;;;;;;6.96;47.82;94374.37;1537579;89;21909;-60
2022/02/25 09:12:46;;;;;;;14.98;8.60;;;;;;;6.99;47.32;94373.50;1518740;92;21148;-57
2022/02/25 09:15:18;;;;;;;16.10;9.10;;;;;;;7.08;47.21;94375.77;1541591;90;21366;-64
2022/02/25 09:17:46;;;;;;;13.93;8.70;;;;;;;7.17;46.50;94378.66;1541282;91;21142;-59
2022/02/25 09:20:13;;;;;;;14.30;9.30;;;;;;;7.23;46.87;94382.38;1545631;90;21280;-60
2022/02/25 09:22:40;;;;;;;23.15;18.20;;;;;;;7.35;46.71;94374.19;1536410;90;21226;-60
2022/02/25 09:25:09;;;;;;;14.80;11.40;;;;;;;7.53;46.65;94377.17;1545980;91;21141;-62
2022/02/25 09:27:37;;;;;;;18.42;8.85;;;;;;;7.76;46.48;94377.47;1567902;89;21165;-58
2022/02/25 09:30:07;;;;;;;17.92;8.50;;;;;;;8.02;45.54;94387.98;1542680;91;21119;-60
2022/02/25 09:32:34;;;;;;;14.00;9.48;;;;;;;8.22;45.40;94396.77;1544734;90;21387;-57
2022/02/25 09:35:03;;;;;;;17.27;6.90;;;;;;;8.33;44.89;94386.24;1575291;89;21963;-56
2022/02/25 09:37:34;;;;;;;18.37;7.67;;;;;;;8.41;44.04;94386.16;1531959;91;21139;-56
2022/02/25 09:40:07;;;;;;;9.20;6.85;;;;;;;8.56;43.44;94380.97;1544214;91;21151;-60
2022/02/25 09:42:38;;;;;;;12.18;7.50;;;;;;;8.63;43.02;94383.48;1549692;90;21065;-61
2022/02/25 09:45:06;;;;;;;15.40;7.12;;;;;;;8.69;43.45;94377.00;1543741;91;21155;-57
2022/02/25 09:47:35;;;;;;;10.32;6.83;;;;;;;8.74;42.96;94383.87;1552413;91;21545;-58
2022/02/25 09:50:04;;;;;;;14.80;7.20;;;;;;;8.73;42.25;94379.60;1553012;90;21148;-59
2022/02/25 09:52:35;;;;;;;18.85;6.97;;;;;;;8.71;42.50;94377.32;1531777;91;21187;-58
2022/02/25 09:55:11;;;;;;;11.70;7.05;;;;;;;8.72;41.97;94377.48;1550271;91;21632;-62
2022/02/25 09:57:39;;;;;;;13.40;7.12;;;;;;;8.87;42.12;94375.01;1541547;91;21521;-59
2022/02/25 10:00:08;;;;;;;12.50;6.83;;;;;;;9.19;41.22;94367.17;1519681;91;21057;-56
2022/02/25 10:02:43;;;;;;;11.48;6.12;;;;;;;9.72;39.15;94371.46;1542904;91;21161;-59
2022/02/25 10:05:20;;;;;;;8.88;4.97;;;;;;;10.25;38.40;94367.44;1536588;91;21212;-58
2022/02/25 10:07:46;;;;;;;5.90;4.03;;;;;;;10.89;36.20;94365.72;1535443;90;21141;-62
2022/02/25 10:10:14;;;;;;;6.12;3.87;;;;;;;11.48;34.56;94357.58;1582764;89;21065;-60
2022/02/25 10:12:50;;;;;;;8.55;4.55;;;;;;;11.95;32.39;94356.42;1523592;92;20998;-55
2022/02/25 10:15:22;;;;;;;7.78;4.00;;;;;;;12.24;32.18;94355.84;1537402;91;21140;-60
2022/02/25 10:17:53;;;;;;;9.65;6.42;;;;;;;12.30;32.16;94356.09;1549243;91;21308;-59
2022/02/25 10:20:22;;;;;;;10.63;4.75;;;;;;;12.40;31.03;94360.35;1523150;91;26953;-59
2022/02/25 10:22:49;;;;;;;9.33;5.90;;;;;;;12.57;31.19;94360.11;1514926;91;21054;-57
2022/02/25 10:25:19;;;;;;;8.80;5.60;;;;;;;12.60;31.12;94353.64;1541011;91;21048;-58
2022/02/25 10:27:45;;;;;;;17.98;6.67;;;;;;;12.83;30.33;94349.51;1540351;91;21016;-59
2022/02/25 10:30:19;;;;;;;28.85;7.58;;;;;;;13.52;31.20;94350.50;1537247;91;21093;-61
2022/02/25 10:32:48;;;;;;;9.60;4.65;;;;;;;13.88;30.13;94349.52;1546120;91;21217;-60
2022/02/25 10:35:39;;;;;;;11.73;5.33;;;;;;;14.02;29.46;94346.59;1537948;92;21417;-56
2022/02/25 10:38:15;;;;;;;13.35;6.00;;;;;;;14.14;29.37;94341.39;1524856;91;21607;-58
2022/02/25 10:40:45;;;;;;;10.75;5.62;;;;;;;14.27;29.03;94348.77;1538738;91;22093;-59
2022/02/25 10:43:23;;;;;;;17.07;6.40;;;;;;;14.13;29.12;94346.14;1536752;91;21182;-59
2022/02/25 10:45:54;;;;;;;45.60;10.25;;;;;;;13.80;29.46;94349.00;1546139;91;21149;-59
2022/02/25 10:48:24;;;;;;;14.35;5.83;;;;;;;13.89;30.53;94348.28;1533653;90;21112;-60
2022/02/25 10:50:57;;;;;;;11.97;4.75;;;;;;;14.40;29.94;94347.84;1530907;92;21129;-57
2022/02/25 10:53:35;;;;;;;8.48;5.22;;;;;;;14.79;28.96;94348.54;1538560;91;21120;-62
2022/02/25 10:56:12;;;;;;;9.48;4.60;;;;;;;15.16;28.54;94334.28;1493696;94;22025;-57
2022/02/25 10:58:45;;;;;;;7.10;3.77;;;;;;;15.70;28.45;94338.92;1527099;92;21093;-59
2022/02/25 11:01:13;;;;;;;;;;;;;;;16.02;26.47;94332.91;1507255;92;21029;-61
2022/02/25 11:03:42;;;;;;;8.93;3.70;;;;;;;15.68;26.91;94336.63;1533223;91;20200;-62
2022/02/25 11:06:13;;;;;;;13.98;5.65;;;;;;;15.06;27.77;94333.66;1572160;90;21179;-61
2022/02/25 11:08:39;;;;;;;8.95;5.60;;;;;;;14.36;28.84;94322.38;1528741;91;21118;-59
2022/02/25 11:11:06;;;;;;;14.63;7.80;;;;;;;13.76;29.19;94325.67;1530634;90;21068;-58
2022/02/25 11:13:33;;;;;;;16.40;7.35;;;;;;;13.11;30.17;94323.86;1541252;90;21029;-57
2022/02/25 11:16:00;;;;;;;16.30;8.88;;;;;;;12.64;30.99;94320.51;1549274;91;21195;-58
2022/02/25 11:18:27;;;;;;;9.20;5.42;;;;;;;12.41;31.33;94321.13;1554652;90;21120;-58
2022/02/25 11:20:54;;;;;;;8.68;5.35;;;;;;;12.28;31.15;94321.33;1559034;91;21170;-53
2022/02/25 11:23:21;;;;;;;13.68;7.65;;;;;;;12.41;31.20;94326.02;1525384;91;21538;-55
2022/02/25 11:25:48;;;;;;;14.78;7.95;;;;;;;12.92;31.24;94313.56;1527352;92;21106;-57
2022/02/25 11:28:16;;;;;;;14.58;8.58;;;;;;;13.33;30.61;94309.08;1534983;91;21148;-54
2022/02/25 11:31:08;;;;;;;30.40;21.68;;;;;;;13.28;30.85;94301.45;1540016;91;22270;-56
2022/02/25 11:33:35;;;;;;;13.30;7.65;;;;;;;13.15;31.75;94315.55;1554259;91;21177;-56